sensor_id;sensor_type;location;lat;lon;timestamp;P1;durP1;ratioP1;P2;durP2;ratioP2
60714;SDS011;46564;53.096;8.246;2023-03-30T00:00:39;9.25;;;4.38;;
60714;SDS011;46564;53.096;8.246;2023-03-30T00:05:43;7.72;;;3.65;;
60714;SDS011;46564;53.096;8.246;2023-03-30T00:10:47;8.98;;;4.35;;
60714;SDS011;46564;53.096;8.246;2023-03-30T00:15:49;8.23;;;3.92;;
60714;SDS011;46564;53.096;8.246;2023-03-30T00:20:51;8.40;;;4.05;;
60714;SDS011;46564;53.096;8.246;2023-03-30T00:25:53;10.02;;;3.03;;
60714;SDS011;46564;53.096;8.246;2023-03-30T00:30:55;8.05;;;3.63;;
60714;SDS011;46564;53.096;8.246;2023-03-30T00:35:58;7.60;;;3.55;;
60714;SDS011;46564;53.096;8.246;2023-03-30T00:41:00;9.85;;;4.03;;
60714;SDS011;46564;53.096;8.246;2023-03-30T00:46:02;9.07;;;4.43;;
60714;SDS011;46564;53.096;8.246;2023-03-30T00:51:05;10.75;;;3.95;;
60714;SDS011;46564;53.096;8.246;2023-03-30T00:56:10;7.88;;;4.10;;
60714;SDS011;46564;53.096;8.246;2023-03-30T01:01:16;8.15;;;3.92;;
60714;SDS011;46564;53.096;8.246;2023-03-30T01:06:26;9.73;;;4.55;;
60714;SDS011;46564;53.096;8.246;2023-03-30T01:11:30;8.50;;;3.50;;
60714;SDS011;46564;53.096;8.246;2023-03-30T01:43:33;7.20;;;3.22;;
60714;SDS011;46564;53.096;8.246;2023-03-30T01:48:40;6.65;;;2.85;;
60714;SDS011;46564;53.096;8.246;2023-03-30T01:59:00;7.35;;;3.88;;
60714;SDS011;46564;53.096;8.246;2023-03-30T02:04:13;7.78;;;3.13;;
60714;SDS011;46564;53.096;8.246;2023-03-30T02:09:16;6.63;;;3.33;;
60714;SDS011;46564;53.096;8.246;2023-03-30T02:14:23;7.03;;;3.22;;
60714;SDS011;46564;53.096;8.246;2023-03-30T02:19:29;6.25;;;2.50;;
60714;SDS011;46564;53.096;8.246;2023-03-30T02:24:31;5.18;;;2.65;;
60714;SDS011;46564;53.096;8.246;2023-03-30T02:29:34;8.40;;;3.47;;
60714;SDS011;46564;53.096;8.246;2023-03-30T02:34:56;7.57;;;3.55;;
60714;SDS011;46564;53.096;8.246;2023-03-30T03:02:16;3.75;;;2.10;;
60714;SDS011;46564;53.096;8.246;2023-03-30T03:07:33;5.95;;;2.08;;
60714;SDS011;46564;53.096;8.246;2023-03-30T03:12:35;5.28;;;1.83;;
60714;SDS011;46564;53.096;8.246;2023-03-30T03:17:37;3.53;;;2.00;;
60714;SDS011;46564;53.096;8.246;2023-03-30T03:22:41;4.97;;;1.92;;
60714;SDS011;46564;53.096;8.246;2023-03-30T03:27:44;5.65;;;2.10;;
60714;SDS011;46564;53.096;8.246;2023-03-30T03:32:56;6.60;;;1.60;;
60714;SDS011;46564;53.096;8.246;2023-03-30T03:38:00;4.13;;;1.63;;
60714;SDS011;46564;53.096;8.246;2023-03-30T03:43:01;3.58;;;1.70;;
60714;SDS011;46564;53.096;8.246;2023-03-30T03:48:03;8.32;;;1.58;;
60714;SDS011;46564;53.096;8.246;2023-03-30T03:53:18;2.88;;;1.40;;
60714;SDS011;46564;53.096;8.246;2023-03-30T03:58:24;2.45;;;1.33;;
60714;SDS011;46564;53.096;8.246;2023-03-30T04:03:26;4.10;;;1.90;;
60714;SDS011;46564;53.096;8.246;2023-03-30T04:08:28;3.13;;;1.58;;
60714;SDS011;46564;53.096;8.246;2023-03-30T04:18:48;4.60;;;1.73;;
60714;SDS011;46564;53.096;8.246;2023-03-30T04:24:14;3.17;;;1.45;;
60714;SDS011;46564;53.096;8.246;2023-03-30T04:29:37;2.92;;;1.30;;
60714;SDS011;46564;53.096;8.246;2023-03-30T04:35:16;4.47;;;1.40;;
60714;SDS011;46564;53.096;8.246;2023-03-30T04:40:48;1.30;;;0.90;;
60714;SDS011;46564;53.096;8.246;2023-03-30T04:46:09;3.42;;;1.23;;
60714;SDS011;46564;53.096;8.246;2023-03-30T04:51:11;1.50;;;0.90;;
60714;SDS011;46564;53.096;8.246;2023-03-30T04:56:35;1.85;;;1.02;;
60714;SDS011;46564;53.096;8.246;2023-03-30T05:01:57;2.22;;;1.25;;
60714;SDS011;46564;53.096;8.246;2023-03-30T05:07:12;1.80;;;1.05;;
60714;SDS011;46564;53.096;8.246;2023-03-30T05:12:30;5.15;;;1.13;;
60714;SDS011;46564;53.096;8.246;2023-03-30T05:18:05;2.05;;;0.95;;
60714;SDS011;46564;53.096;8.246;2023-03-30T05:23:25;4.93;;;1.42;;
60714;SDS011;46564;53.096;8.246;2023-03-30T05:28:36;3.22;;;1.50;;
60714;SDS011;46564;53.096;8.246;2023-03-30T05:34:00;2.67;;;1.13;;
60714;SDS011;46564;53.096;8.246;2023-03-30T05:39:14;5.97;;;1.33;;
60714;SDS011;46564;53.096;8.246;2023-03-30T05:44:16;2.33;;;1.17;;
60714;SDS011;46564;53.096;8.246;2023-03-30T05:49:46;2.97;;;1.25;;
60714;SDS011;46564;53.096;8.246;2023-03-30T05:54:56;2.40;;;1.10;;
60714;SDS011;46564;53.096;8.246;2023-03-30T06:00:10;5.38;;;1.33;;
60714;SDS011;46564;53.096;8.246;2023-03-30T06:05:24;5.25;;;1.20;;
60714;SDS011;46564;53.096;8.246;2023-03-30T06:10:28;4.25;;;1.60;;
60714;SDS011;46564;53.096;8.246;2023-03-30T06:15:30;3.20;;;1.35;;
60714;SDS011;46564;53.096;8.246;2023-03-30T06:20:40;3.05;;;1.35;;
60714;SDS011;46564;53.096;8.246;2023-03-30T06:25:46;3.45;;;1.00;;
60714;SDS011;46564;53.096;8.246;2023-03-30T06:30:56;1.40;;;0.85;;
60714;SDS011;46564;53.096;8.246;2023-03-30T06:35:59;2.03;;;1.02;;
60714;SDS011;46564;53.096;8.246;2023-03-30T06:41:02;3.28;;;1.00;;
60714;SDS011;46564;53.096;8.246;2023-03-30T06:46:17;2.35;;;1.20;;
60714;SDS011;46564;53.096;8.246;2023-03-30T06:51:24;2.75;;;1.20;;
60714;SDS011;46564;53.096;8.246;2023-03-30T06:56:34;2.03;;;1.00;;
60714;SDS011;46564;53.096;8.246;2023-03-30T07:01:42;2.67;;;1.30;;
60714;SDS011;46564;53.096;8.246;2023-03-30T07:06:59;4.97;;;1.38;;
60714;SDS011;46564;53.096;8.246;2023-03-30T07:12:03;2.75;;;1.00;;
60714;SDS011;46564;53.096;8.246;2023-03-30T07:17:07;3.78;;;1.17;;
60714;SDS011;46564;53.096;8.246;2023-03-30T07:22:09;4.50;;;1.00;;
60714;SDS011;46564;53.096;8.246;2023-03-30T07:27:16;7.93;;;1.73;;
60714;SDS011;46564;53.096;8.246;2023-03-30T07:32:20;1.75;;;0.98;;
60714;SDS011;46564;53.096;8.246;2023-03-30T07:37:23;2.60;;;1.30;;
60714;SDS011;46564;53.096;8.246;2023-03-30T07:42:26;1.15;;;0.82;;
60714;SDS011;46564;53.096;8.246;2023-03-30T07:47:27;1.73;;;0.70;;
60714;SDS011;46564;53.096;8.246;2023-03-30T07:52:29;3.55;;;1.40;;
60714;SDS011;46564;53.096;8.246;2023-03-30T07:57:35;3.75;;;0.90;;
60714;SDS011;46564;53.096;8.246;2023-03-30T08:02:37;3.33;;;1.00;;
60714;SDS011;46564;53.096;8.246;2023-03-30T08:07:44;1.30;;;0.77;;
60714;SDS011;46564;53.096;8.246;2023-03-30T08:12:52;1.20;;;0.75;;
60714;SDS011;46564;53.096;8.246;2023-03-30T08:17:55;1.20;;;0.77;;
60714;SDS011;46564;53.096;8.246;2023-03-30T08:23:21;2.85;;;1.00;;
60714;SDS011;46564;53.096;8.246;2023-03-30T08:29:00;3.17;;;1.20;;
60714;SDS011;46564;53.096;8.246;2023-03-30T08:34:17;1.20;;;0.70;;
60714;SDS011;46564;53.096;8.246;2023-03-30T08:39:31;4.25;;;1.17;;
60714;SDS011;46564;53.096;8.246;2023-03-30T08:45:21;0.73;;;0.70;;
60714;SDS011;46564;53.096;8.246;2023-03-30T08:50:34;1.98;;;1.08;;
60714;SDS011;46564;53.096;8.246;2023-03-30T08:55:56;4.47;;;1.25;;
60714;SDS011;46564;53.096;8.246;2023-03-30T09:06:28;2.33;;;0.85;;
60714;SDS011;46564;53.096;8.246;2023-03-30T09:11:45;1.73;;;0.80;;
60714;SDS011;46564;53.096;8.246;2023-03-30T09:16:51;3.15;;;0.65;;
60714;SDS011;46564;53.096;8.246;2023-03-30T09:21:58;1.27;;;0.60;;
60714;SDS011;46564;53.096;8.246;2023-03-30T09:27:14;2.55;;;0.88;;
60714;SDS011;46564;53.096;8.246;2023-03-30T09:32:31;5.05;;;0.75;;
60714;SDS011;46564;53.096;8.246;2023-03-30T09:37:41;1.20;;;0.50;;
60714;SDS011;46564;53.096;8.246;2023-03-30T09:47:49;0.98;;;0.50;;
60714;SDS011;46564;53.096;8.246;2023-03-30T09:52:59;4.82;;;1.30;;
60714;SDS011;46564;53.096;8.246;2023-03-30T09:58:09;4.50;;;0.90;;
60714;SDS011;46564;53.096;8.246;2023-03-30T10:03:19;3.08;;;0.88;;
60714;SDS011;46564;53.096;8.246;2023-03-30T10:08:23;1.23;;;0.55;;
60714;SDS011;46564;53.096;8.246;2023-03-30T10:13:35;8.70;;;0.98;;
60714;SDS011;46564;53.096;8.246;2023-03-30T10:18:39;5.90;;;1.17;;
60714;SDS011;46564;53.096;8.246;2023-03-30T10:23:45;3.67;;;0.75;;
60714;SDS011;46564;53.096;8.246;2023-03-30T10:34:53;3.72;;;1.30;;
60714;SDS011;46564;53.096;8.246;2023-03-30T10:39:33;1.55;;;0.70;;
60714;SDS011;46564;53.096;8.246;2023-03-30T10:44:40;3.22;;;0.90;;
60714;SDS011;46564;53.096;8.246;2023-03-30T10:49:52;4.57;;;0.60;;
60714;SDS011;46564;53.096;8.246;2023-03-30T11:00:18;2.95;;;0.68;;
60714;SDS011;46564;53.096;8.246;2023-03-30T11:05:36;3.33;;;0.60;;
60714;SDS011;46564;53.096;8.246;2023-03-30T11:10:42;6.63;;;0.52;;
60714;SDS011;46564;53.096;8.246;2023-03-30T11:21:02;1.75;;;0.45;;
60714;SDS011;46564;53.096;8.246;2023-03-30T11:26:07;1.58;;;0.50;;
60714;SDS011;46564;53.096;8.246;2023-03-30T11:36:43;3.53;;;0.70;;
60714;SDS011;46564;53.096;8.246;2023-03-30T11:41:55;4.28;;;0.70;;
60714;SDS011;46564;53.096;8.246;2023-03-30T11:47:13;0.63;;;0.30;;
60714;SDS011;46564;53.096;8.246;2023-03-30T12:14:04;2.13;;;0.60;;
60714;SDS011;46564;53.096;8.246;2023-03-30T12:19:37;1.17;;;0.30;;
60714;SDS011;46564;53.096;8.246;2023-03-30T12:30:14;2.20;;;1.08;;
60714;SDS011;46564;53.096;8.246;2023-03-30T12:35:50;1.85;;;0.43;;
60714;SDS011;46564;53.096;8.246;2023-03-30T12:41:09;0.77;;;0.30;;
60714;SDS011;46564;53.096;8.246;2023-03-30T12:46:16;4.03;;;0.90;;
60714;SDS011;46564;53.096;8.246;2023-03-30T12:57:01;1.10;;;0.73;;
60714;SDS011;46564;53.096;8.246;2023-03-30T13:02:47;5.10;;;0.50;;
60714;SDS011;46564;53.096;8.246;2023-03-30T13:08:08;6.45;;;0.80;;
60714;SDS011;46564;53.096;8.246;2023-03-30T13:13:22;1.35;;;0.45;;
60714;SDS011;46564;53.096;8.246;2023-03-30T13:18:52;5.03;;;1.13;;
60714;SDS011;46564;53.096;8.246;2023-03-30T13:24:03;2.22;;;0.90;;
60714;SDS011;46564;53.096;8.246;2023-03-30T13:29:22;1.27;;;0.35;;
60714;SDS011;46564;53.096;8.246;2023-03-30T13:34:39;1.17;;;0.25;;
60714;SDS011;46564;53.096;8.246;2023-03-30T13:40:17;3.25;;;0.75;;
60714;SDS011;46564;53.096;8.246;2023-03-30T13:50:55;1.90;;;0.38;;
60714;SDS011;46564;53.096;8.246;2023-03-30T13:55:59;4.97;;;0.70;;
60714;SDS011;46564;53.096;8.246;2023-03-30T14:01:10;2.97;;;1.02;;
60714;SDS011;46564;53.096;8.246;2023-03-30T14:06:15;7.65;;;0.93;;
60714;SDS011;46564;53.096;8.246;2023-03-30T14:11:21;3.30;;;0.75;;
60714;SDS011;46564;53.096;8.246;2023-03-30T14:16:30;3.97;;;0.57;;
60714;SDS011;46564;53.096;8.246;2023-03-30T14:21:35;3.42;;;0.95;;
60714;SDS011;46564;53.096;8.246;2023-03-30T14:26:38;1.35;;;0.88;;
60714;SDS011;46564;53.096;8.246;2023-03-30T14:31:41;4.05;;;0.80;;
60714;SDS011;46564;53.096;8.246;2023-03-30T14:36:54;1.75;;;0.50;;
60714;SDS011;46564;53.096;8.246;2023-03-30T14:42:06;1.02;;;0.25;;
60714;SDS011;46564;53.096;8.246;2023-03-30T14:47:23;3.80;;;0.55;;
60714;SDS011;46564;53.096;8.246;2023-03-30T14:52:30;1.00;;;0.50;;
60714;SDS011;46564;53.096;8.246;2023-03-30T14:57:34;4.95;;;0.57;;
60714;SDS011;46564;53.096;8.246;2023-03-30T15:02:38;3.53;;;0.52;;
60714;SDS011;46564;53.096;8.246;2023-03-30T15:07:44;1.90;;;0.77;;
60714;SDS011;46564;53.096;8.246;2023-03-30T15:12:50;2.58;;;0.50;;
60714;SDS011;46564;53.096;8.246;2023-03-30T15:17:55;1.30;;;0.40;;
60714;SDS011;46564;53.096;8.246;2023-03-30T15:22:57;2.97;;;1.15;;
60714;SDS011;46564;53.096;8.246;2023-03-30T15:28:01;3.65;;;0.55;;
60714;SDS011;46564;53.096;8.246;2023-03-30T15:33:17;0.43;;;0.30;;
60714;SDS011;46564;53.096;8.246;2023-03-30T15:38:29;4.07;;;0.90;;
60714;SDS011;46564;53.096;8.246;2023-03-30T15:43:35;8.50;;;1.55;;
60714;SDS011;46564;53.096;8.246;2023-03-30T15:58:48;25.98;;;7.78;;
60714;SDS011;46564;53.096;8.246;2023-03-30T16:03:55;2.15;;;0.80;;
60714;SDS011;46564;53.096;8.246;2023-03-30T16:14:02;4.40;;;0.98;;
60714;SDS011;46564;53.096;8.246;2023-03-30T16:19:10;2.13;;;0.47;;
60714;SDS011;46564;53.096;8.246;2023-03-30T16:24:12;4.38;;;1.13;;
60714;SDS011;46564;53.096;8.246;2023-03-30T16:29:17;3.05;;;0.63;;
60714;SDS011;46564;53.096;8.246;2023-03-30T16:34:21;0.68;;;0.47;;
60714;SDS011;46564;53.096;8.246;2023-03-30T16:39:24;1.95;;;0.38;;
60714;SDS011;46564;53.096;8.246;2023-03-30T16:44:27;14.02;;;1.55;;
60714;SDS011;46564;53.096;8.246;2023-03-30T16:49:29;1.65;;;0.45;;
60714;SDS011;46564;53.096;8.246;2023-03-30T16:54:30;6.38;;;1.00;;
60714;SDS011;46564;53.096;8.246;2023-03-30T16:59:33;4.15;;;1.13;;
60714;SDS011;46564;53.096;8.246;2023-03-30T17:04:35;1.27;;;0.68;;
60714;SDS011;46564;53.096;8.246;2023-03-30T17:09:36;3.55;;;1.23;;
60714;SDS011;46564;53.096;8.246;2023-03-30T17:14:38;5.78;;;0.93;;
60714;SDS011;46564;53.096;8.246;2023-03-30T17:19:43;8.20;;;0.98;;
60714;SDS011;46564;53.096;8.246;2023-03-30T17:24:45;2.75;;;0.82;;
60714;SDS011;46564;53.096;8.246;2023-03-30T17:29:46;4.55;;;0.77;;
60714;SDS011;46564;53.096;8.246;2023-03-30T17:34:48;4.75;;;0.73;;
60714;SDS011;46564;53.096;8.246;2023-03-30T17:39:49;7.43;;;1.20;;
60714;SDS011;46564;53.096;8.246;2023-03-30T17:44:52;9.38;;;1.05;;
60714;SDS011;46564;53.096;8.246;2023-03-30T17:49:53;9.63;;;1.70;;
60714;SDS011;46564;53.096;8.246;2023-03-30T17:54:55;10.75;;;3.05;;
60714;SDS011;46564;53.096;8.246;2023-03-30T17:59:57;7.85;;;1.83;;
60714;SDS011;46564;53.096;8.246;2023-03-30T18:04:58;7.05;;;1.88;;
60714;SDS011;46564;53.096;8.246;2023-03-30T18:10:00;9.70;;;0.85;;
60714;SDS011;46564;53.096;8.246;2023-03-30T18:15:02;3.95;;;0.68;;
60714;SDS011;46564;53.096;8.246;2023-03-30T18:25:12;10.18;;;1.20;;
60714;SDS011;46564;53.096;8.246;2023-03-30T18:30:35;9.63;;;1.17;;
60714;SDS011;46564;53.096;8.246;2023-03-30T18:35:38;4.82;;;1.17;;
60714;SDS011;46564;53.096;8.246;2023-03-30T18:40:40;7.20;;;1.55;;
60714;SDS011;46564;53.096;8.246;2023-03-30T18:45:47;5.82;;;1.08;;
60714;SDS011;46564;53.096;8.246;2023-03-30T18:50:50;3.05;;;0.93;;
60714;SDS011;46564;53.096;8.246;2023-03-30T18:55:57;7.00;;;1.23;;
60714;SDS011;46564;53.096;8.246;2023-03-30T19:01:00;7.57;;;1.77;;
60714;SDS011;46564;53.096;8.246;2023-03-30T19:06:02;5.82;;;1.05;;
60714;SDS011;46564;53.096;8.246;2023-03-30T19:11:04;7.80;;;1.50;;
60714;SDS011;46564;53.096;8.246;2023-03-30T19:16:07;6.63;;;1.63;;
60714;SDS011;46564;53.096;8.246;2023-03-30T19:21:12;7.53;;;1.27;;
60714;SDS011;46564;53.096;8.246;2023-03-30T19:26:16;4.82;;;1.35;;
60714;SDS011;46564;53.096;8.246;2023-03-30T19:31:18;4.65;;;1.20;;
60714;SDS011;46564;53.096;8.246;2023-03-30T19:36:20;11.48;;;1.90;;
60714;SDS011;46564;53.096;8.246;2023-03-30T19:41:25;10.25;;;1.83;;
60714;SDS011;46564;53.096;8.246;2023-03-30T19:46:26;7.00;;;1.20;;
60714;SDS011;46564;53.096;8.246;2023-03-30T19:51:28;5.85;;;1.58;;
60714;SDS011;46564;53.096;8.246;2023-03-30T19:56:30;4.63;;;0.90;;
60714;SDS011;46564;53.096;8.246;2023-03-30T20:01:32;5.30;;;0.90;;
60714;SDS011;46564;53.096;8.246;2023-03-30T20:06:33;2.63;;;0.93;;
60714;SDS011;46564;53.096;8.246;2023-03-30T20:11:36;4.32;;;1.10;;
60714;SDS011;46564;53.096;8.246;2023-03-30T20:16:37;8.05;;;0.95;;
60714;SDS011;46564;53.096;8.246;2023-03-30T20:21:39;9.55;;;0.98;;
60714;SDS011;46564;53.096;8.246;2023-03-30T20:26:41;7.72;;;1.00;;
60714;SDS011;46564;53.096;8.246;2023-03-30T20:31:43;8.30;;;1.10;;
60714;SDS011;46564;53.096;8.246;2023-03-30T20:36:46;12.15;;;1.13;;
60714;SDS011;46564;53.096;8.246;2023-03-30T20:41:49;8.95;;;1.63;;
60714;SDS011;46564;53.096;8.246;2023-03-30T20:46:54;2.80;;;0.93;;
60714;SDS011;46564;53.096;8.246;2023-03-30T20:51:58;2.50;;;0.65;;
60714;SDS011;46564;53.096;8.246;2023-03-30T20:57:03;8.10;;;0.95;;
60714;SDS011;46564;53.096;8.246;2023-03-30T21:02:05;4.75;;;0.93;;
60714;SDS011;46564;53.096;8.246;2023-03-30T21:07:07;2.97;;;0.95;;
60714;SDS011;46564;53.096;8.246;2023-03-30T21:12:10;2.63;;;0.73;;
60714;SDS011;46564;53.096;8.246;2023-03-30T21:17:12;7.22;;;0.93;;
60714;SDS011;46564;53.096;8.246;2023-03-30T21:22:13;4.47;;;1.25;;
60714;SDS011;46564;53.096;8.246;2023-03-30T21:27:15;4.15;;;1.42;;
60714;SDS011;46564;53.096;8.246;2023-03-30T21:32:16;9.02;;;1.52;;
60714;SDS011;46564;53.096;8.246;2023-03-30T21:37:18;4.13;;;1.27;;
60714;SDS011;46564;53.096;8.246;2023-03-30T21:42:20;4.03;;;0.60;;
60714;SDS011;46564;53.096;8.246;2023-03-30T21:47:22;2.17;;;0.55;;
60714;SDS011;46564;53.096;8.246;2023-03-30T21:52:23;2.38;;;0.70;;
60714;SDS011;46564;53.096;8.246;2023-03-30T21:57:25;5.82;;;0.82;;
60714;SDS011;46564;53.096;8.246;2023-03-30T22:02:27;1.55;;;0.60;;
60714;SDS011;46564;53.096;8.246;2023-03-30T22:07:31;1.60;;;0.50;;
60714;SDS011;46564;53.096;8.246;2023-03-30T22:12:32;1.67;;;0.70;;
60714;SDS011;46564;53.096;8.246;2023-03-30T22:17:34;1.80;;;0.88;;
60714;SDS011;46564;53.096;8.246;2023-03-30T22:22:41;8.05;;;0.85;;
60714;SDS011;46564;53.096;8.246;2023-03-30T22:27:43;4.93;;;1.23;;
60714;SDS011;46564;53.096;8.246;2023-03-30T22:32:45;4.05;;;0.77;;
60714;SDS011;46564;53.096;8.246;2023-03-30T22:37:47;0.80;;;0.50;;
60714;SDS011;46564;53.096;8.246;2023-03-30T22:42:48;1.55;;;0.52;;
60714;SDS011;46564;53.096;8.246;2023-03-30T22:47:50;3.60;;;0.73;;
60714;SDS011;46564;53.096;8.246;2023-03-30T22:52:53;1.92;;;0.65;;
60714;SDS011;46564;53.096;8.246;2023-03-30T22:57:56;3.08;;;1.05;;
60714;SDS011;46564;53.096;8.246;2023-03-30T23:02:58;4.25;;;1.05;;
60714;SDS011;46564;53.096;8.246;2023-03-30T23:08:01;11.85;;;0.88;;
60714;SDS011;46564;53.096;8.246;2023-03-30T23:13:03;4.00;;;1.02;;
60714;SDS011;46564;53.096;8.246;2023-03-30T23:18:05;3.67;;;1.33;;
60714;SDS011;46564;53.096;8.246;2023-03-30T23:23:07;1.98;;;0.90;;
60714;SDS011;46564;53.096;8.246;2023-03-30T23:28:08;5.43;;;1.23;;
60714;SDS011;46564;53.096;8.246;2023-03-30T23:33:10;4.35;;;1.25;;
60714;SDS011;46564;53.096;8.246;2023-03-30T23:38:12;4.55;;;0.93;;
60714;SDS011;46564;53.096;8.246;2023-03-30T23:43:14;6.20;;;1.10;;
60714;SDS011;46564;53.096;8.246;2023-03-30T23:48:16;5.00;;;0.85;;
60714;SDS011;46564;53.096;8.246;2023-03-30T23:53:18;2.53;;;0.80;;
60714;SDS011;46564;53.096;8.246;2023-03-30T23:58:19;4.38;;;0.82;;
